sensor_id;sensor_type;location;lat;lon;timestamp;P1;durP1;ratioP1;P2;durP2;ratioP2
34737;SDS011;39910;47.154;27.614;2022-12-20T00:00:11;16.30;;;15.50;;
34737;SDS011;39910;47.154;27.614;2022-12-20T00:02:37;17.27;;;16.38;;
34737;SDS011;39910;47.154;27.614;2022-12-20T00:05:03;17.75;;;16.90;;
34737;SDS011;39910;47.154;27.614;2022-12-20T00:07:28;16.67;;;15.77;;
34737;SDS011;39910;47.154;27.614;2022-12-20T00:09:55;16.30;;;15.50;;
34737;SDS011;39910;47.154;27.614;2022-12-20T00:12:20;15.85;;;15.05;;
34737;SDS011;39910;47.154;27.614;2022-12-20T00:14:46;15.75;;;14.95;;
34737;SDS011;39910;47.154;27.614;2022-12-20T00:17:11;16.08;;;15.30;;
34737;SDS011;39910;47.154;27.614;2022-12-20T00:19:37;16.27;;;15.48;;
34737;SDS011;39910;47.154;27.614;2022-12-20T00:22:02;16.23;;;15.45;;
34737;SDS011;39910;47.154;27.614;2022-12-20T00:24:28;16.23;;;15.43;;
34737;SDS011;39910;47.154;27.614;2022-12-20T00:26:53;16.35;;;15.57;;
34737;SDS011;39910;47.154;27.614;2022-12-20T00:29:18;17.52;;;16.52;;
34737;SDS011;39910;47.154;27.614;2022-12-20T00:31:44;17.25;;;16.40;;
34737;SDS011;39910;47.154;27.614;2022-12-20T00:34:10;16.48;;;15.68;;
34737;SDS011;39910;47.154;27.614;2022-12-20T00:36:35;16.88;;;16.08;;
34737;SDS011;39910;47.154;27.614;2022-12-20T00:39:04;17.42;;;16.58;;
34737;SDS011;39910;47.154;27.614;2022-12-20T00:41:30;17.60;;;16.70;;
34737;SDS011;39910;47.154;27.614;2022-12-20T00:43:57;16.20;;;15.40;;
34737;SDS011;39910;47.154;27.614;2022-12-20T00:46:24;17.27;;;16.38;;
34737;SDS011;39910;47.154;27.614;2022-12-20T00:48:50;18.33;;;17.40;;
34737;SDS011;39910;47.154;27.614;2022-12-20T00:51:17;16.58;;;15.77;;
34737;SDS011;39910;47.154;27.614;2022-12-20T00:53:45;16.83;;;16.02;;
34737;SDS011;39910;47.154;27.614;2022-12-20T00:56:11;16.35;;;15.55;;
34737;SDS011;39910;47.154;27.614;2022-12-20T00:58:38;18.15;;;17.20;;
34737;SDS011;39910;47.154;27.614;2022-12-20T01:01:06;16.15;;;15.35;;
34737;SDS011;39910;47.154;27.614;2022-12-20T01:03:42;16.63;;;15.75;;
34737;SDS011;39910;47.154;27.614;2022-12-20T01:06:08;16.83;;;16.02;;
34737;SDS011;39910;47.154;27.614;2022-12-20T01:08:34;18.02;;;17.13;;
34737;SDS011;39910;47.154;27.614;2022-12-20T01:13:31;18.38;;;17.38;;
34737;SDS011;39910;47.154;27.614;2022-12-20T01:16:02;17.50;;;16.65;;
34737;SDS011;39910;47.154;27.614;2022-12-20T01:18:29;18.20;;;17.30;;
34737;SDS011;39910;47.154;27.614;2022-12-20T01:21:05;19.40;;;18.40;;
34737;SDS011;39910;47.154;27.614;2022-12-20T01:23:35;18.10;;;17.20;;
34737;SDS011;39910;47.154;27.614;2022-12-20T01:26:01;19.35;;;18.45;;
34737;SDS011;39910;47.154;27.614;2022-12-20T01:28:33;17.80;;;16.90;;
34737;SDS011;39910;47.154;27.614;2022-12-20T01:30:59;17.33;;;16.42;;
34737;SDS011;39910;47.154;27.614;2022-12-20T01:33:25;17.45;;;16.65;;
34737;SDS011;39910;47.154;27.614;2022-12-20T01:35:57;17.65;;;16.75;;
34737;SDS011;39910;47.154;27.614;2022-12-20T01:38:24;19.02;;;18.05;;
34737;SDS011;39910;47.154;27.614;2022-12-20T01:40:50;19.75;;;18.77;;
34737;SDS011;39910;47.154;27.614;2022-12-20T01:43:16;20.48;;;19.48;;
34737;SDS011;39910;47.154;27.614;2022-12-20T01:45:43;17.52;;;16.63;;
34737;SDS011;39910;47.154;27.614;2022-12-20T01:48:08;17.67;;;16.88;;
34737;SDS011;39910;47.154;27.614;2022-12-20T01:50:35;17.48;;;16.60;;
34737;SDS011;39910;47.154;27.614;2022-12-20T01:53:01;16.95;;;16.15;;
34737;SDS011;39910;47.154;27.614;2022-12-20T01:55:29;18.80;;;17.77;;
34737;SDS011;39910;47.154;27.614;2022-12-20T02:00:27;18.95;;;18.00;;
34737;SDS011;39910;47.154;27.614;2022-12-20T02:02:54;18.08;;;17.17;;
34737;SDS011;39910;47.154;27.614;2022-12-20T02:05:22;17.95;;;17.00;;
34737;SDS011;39910;47.154;27.614;2022-12-20T02:07:49;18.05;;;17.15;;
34737;SDS011;39910;47.154;27.614;2022-12-20T02:10:17;19.48;;;18.55;;
34737;SDS011;39910;47.154;27.614;2022-12-20T02:12:45;17.33;;;16.52;;
34737;SDS011;39910;47.154;27.614;2022-12-20T02:28:44;18.52;;;17.63;;
34737;SDS011;39910;47.154;27.614;2022-12-20T02:31:40;19.15;;;18.25;;
34737;SDS011;39910;47.154;27.614;2022-12-20T02:34:12;18.35;;;17.45;;
34737;SDS011;39910;47.154;27.614;2022-12-20T02:36:39;17.85;;;16.95;;
34737;SDS011;39910;47.154;27.614;2022-12-20T02:39:04;17.63;;;16.73;;
34737;SDS011;39910;47.154;27.614;2022-12-20T02:41:39;17.63;;;16.73;;
34737;SDS011;39910;47.154;27.614;2022-12-20T02:44:13;17.05;;;16.25;;
34737;SDS011;39910;47.154;27.614;2022-12-20T02:47:02;18.05;;;17.15;;
34737;SDS011;39910;47.154;27.614;2022-12-20T02:49:33;18.38;;;17.45;;
34737;SDS011;39910;47.154;27.614;2022-12-20T02:52:02;17.55;;;16.75;;
34737;SDS011;39910;47.154;27.614;2022-12-20T02:54:30;17.48;;;16.60;;
34737;SDS011;39910;47.154;27.614;2022-12-20T02:57:01;18.92;;;18.00;;
34737;SDS011;39910;47.154;27.614;2022-12-20T02:59:35;18.20;;;17.23;;
34737;SDS011;39910;47.154;27.614;2022-12-20T03:02:05;18.38;;;17.45;;
34737;SDS011;39910;47.154;27.614;2022-12-20T03:04:33;17.88;;;16.98;;
34737;SDS011;39910;47.154;27.614;2022-12-20T03:07:08;18.35;;;17.45;;
34737;SDS011;39910;47.154;27.614;2022-12-20T03:09:37;18.52;;;17.63;;
34737;SDS011;39910;47.154;27.614;2022-12-20T03:12:04;17.50;;;16.63;;
34737;SDS011;39910;47.154;27.614;2022-12-20T03:14:30;17.92;;;17.02;;
34737;SDS011;39910;47.154;27.614;2022-12-20T03:16:56;17.35;;;16.45;;
34737;SDS011;39910;47.154;27.614;2022-12-20T03:19:22;16.75;;;15.95;;
34737;SDS011;39910;47.154;27.614;2022-12-20T03:21:48;16.55;;;15.75;;
34737;SDS011;39910;47.154;27.614;2022-12-20T03:24:14;16.30;;;15.50;;
34737;SDS011;39910;47.154;27.614;2022-12-20T03:26:40;16.80;;;16.00;;
34737;SDS011;39910;47.154;27.614;2022-12-20T03:29:06;16.75;;;15.95;;
34737;SDS011;39910;47.154;27.614;2022-12-20T03:31:31;16.88;;;15.98;;
34737;SDS011;39910;47.154;27.614;2022-12-20T03:33:57;15.68;;;14.90;;
34737;SDS011;39910;47.154;27.614;2022-12-20T03:36:22;16.25;;;15.40;;
34737;SDS011;39910;47.154;27.614;2022-12-20T03:38:51;15.45;;;14.65;;
34737;SDS011;39910;47.154;27.614;2022-12-20T03:41:18;16.38;;;15.48;;
34737;SDS011;39910;47.154;27.614;2022-12-20T03:43:45;15.98;;;15.15;;
34737;SDS011;39910;47.154;27.614;2022-12-20T03:46:11;15.77;;;14.98;;
34737;SDS011;39910;47.154;27.614;2022-12-20T03:48:37;15.57;;;14.77;;
34737;SDS011;39910;47.154;27.614;2022-12-20T03:51:03;14.90;;;14.20;;
34737;SDS011;39910;47.154;27.614;2022-12-20T03:53:29;15.15;;;14.35;;
34737;SDS011;39910;47.154;27.614;2022-12-20T03:55:55;14.70;;;14.00;;
34737;SDS011;39910;47.154;27.614;2022-12-20T03:58:21;15.20;;;14.45;;
34737;SDS011;39910;47.154;27.614;2022-12-20T04:00:46;15.20;;;14.50;;
34737;SDS011;39910;47.154;27.614;2022-12-20T04:03:12;15.23;;;14.52;;
34737;SDS011;39910;47.154;27.614;2022-12-20T04:05:37;16.38;;;15.43;;
34737;SDS011;39910;47.154;27.614;2022-12-20T04:08:03;15.65;;;14.85;;
34737;SDS011;39910;47.154;27.614;2022-12-20T04:10:28;15.95;;;15.15;;
34737;SDS011;39910;47.154;27.614;2022-12-20T04:12:54;14.40;;;13.70;;
34737;SDS011;39910;47.154;27.614;2022-12-20T04:15:19;15.30;;;14.55;;
34737;SDS011;39910;47.154;27.614;2022-12-20T04:17:45;15.45;;;14.65;;
34737;SDS011;39910;47.154;27.614;2022-12-20T04:20:12;14.80;;;14.10;;
34737;SDS011;39910;47.154;27.614;2022-12-20T04:22:49;14.77;;;14.07;;
34737;SDS011;39910;47.154;27.614;2022-12-20T04:25:16;15.35;;;14.55;;
34737;SDS011;39910;47.154;27.614;2022-12-20T04:27:43;16.15;;;15.35;;
34737;SDS011;39910;47.154;27.614;2022-12-20T04:30:09;16.25;;;15.45;;
34737;SDS011;39910;47.154;27.614;2022-12-20T04:32:36;15.63;;;14.85;;
34737;SDS011;39910;47.154;27.614;2022-12-20T04:35:01;15.30;;;14.60;;
34737;SDS011;39910;47.154;27.614;2022-12-20T04:37:28;16.10;;;15.25;;
34737;SDS011;39910;47.154;27.614;2022-12-20T04:39:54;16.00;;;15.15;;
34737;SDS011;39910;47.154;27.614;2022-12-20T04:42:20;16.02;;;15.20;;
34737;SDS011;39910;47.154;27.614;2022-12-20T04:44:46;15.07;;;14.38;;
34737;SDS011;39910;47.154;27.614;2022-12-20T04:47:12;17.02;;;15.98;;
34737;SDS011;39910;47.154;27.614;2022-12-20T04:49:37;15.25;;;14.45;;
34737;SDS011;39910;47.154;27.614;2022-12-20T04:52:02;16.10;;;15.30;;
34737;SDS011;39910;47.154;27.614;2022-12-20T04:54:47;15.77;;;14.98;;
34737;SDS011;39910;47.154;27.614;2022-12-20T04:57:12;15.48;;;14.68;;
34737;SDS011;39910;47.154;27.614;2022-12-20T04:59:38;14.63;;;13.93;;
34737;SDS011;39910;47.154;27.614;2022-12-20T05:02:03;14.88;;;14.02;;
34737;SDS011;39910;47.154;27.614;2022-12-20T05:04:29;15.05;;;14.25;;
34737;SDS011;39910;47.154;27.614;2022-12-20T05:06:55;14.63;;;13.93;;
34737;SDS011;39910;47.154;27.614;2022-12-20T05:09:20;14.65;;;13.85;;
34737;SDS011;39910;47.154;27.614;2022-12-20T05:11:46;14.82;;;14.02;;
34737;SDS011;39910;47.154;27.614;2022-12-20T05:14:11;14.55;;;13.75;;
34737;SDS011;39910;47.154;27.614;2022-12-20T05:16:36;13.82;;;13.13;;
34737;SDS011;39910;47.154;27.614;2022-12-20T05:19:02;13.75;;;13.05;;
34737;SDS011;39910;47.154;27.614;2022-12-20T05:21:28;13.57;;;12.88;;
34737;SDS011;39910;47.154;27.614;2022-12-20T05:24:13;13.98;;;13.18;;
34737;SDS011;39910;47.154;27.614;2022-12-20T05:26:57;13.05;;;12.35;;
34737;SDS011;39910;47.154;27.614;2022-12-20T05:29:22;13.20;;;12.50;;
34737;SDS011;39910;47.154;27.614;2022-12-20T05:31:48;14.73;;;13.85;;
34737;SDS011;39910;47.154;27.614;2022-12-20T05:34:13;14.63;;;13.73;;
34737;SDS011;39910;47.154;27.614;2022-12-20T05:36:39;12.38;;;11.73;;
34737;SDS011;39910;47.154;27.614;2022-12-20T05:39:04;12.25;;;11.65;;
34737;SDS011;39910;47.154;27.614;2022-12-20T05:41:30;13.50;;;12.73;;
34737;SDS011;39910;47.154;27.614;2022-12-20T05:43:56;13.32;;;12.52;;
34737;SDS011;39910;47.154;27.614;2022-12-20T05:46:21;12.00;;;11.40;;
34737;SDS011;39910;47.154;27.614;2022-12-20T05:48:47;13.07;;;12.38;;
34737;SDS011;39910;47.154;27.614;2022-12-20T05:51:12;12.98;;;12.20;;
34737;SDS011;39910;47.154;27.614;2022-12-20T05:53:38;12.15;;;11.48;;
34737;SDS011;39910;47.154;27.614;2022-12-20T05:56:04;12.23;;;11.55;;
34737;SDS011;39910;47.154;27.614;2022-12-20T05:58:30;12.00;;;11.40;;
34737;SDS011;39910;47.154;27.614;2022-12-20T06:00:55;11.95;;;11.35;;
34737;SDS011;39910;47.154;27.614;2022-12-20T06:03:21;11.52;;;10.93;;
34737;SDS011;39910;47.154;27.614;2022-12-20T06:05:47;11.32;;;10.73;;
34737;SDS011;39910;47.154;27.614;2022-12-20T06:08:13;12.80;;;12.02;;
34737;SDS011;39910;47.154;27.614;2022-12-20T06:10:39;11.70;;;11.07;;
34737;SDS011;39910;47.154;27.614;2022-12-20T06:13:06;10.98;;;10.38;;
34737;SDS011;39910;47.154;27.614;2022-12-20T06:15:32;12.60;;;11.73;;
34737;SDS011;39910;47.154;27.614;2022-12-20T06:17:59;9.13;;;8.73;;
34737;SDS011;39910;47.154;27.614;2022-12-20T06:20:24;9.18;;;8.68;;
34737;SDS011;39910;47.154;27.614;2022-12-20T06:22:50;9.50;;;9.00;;
34737;SDS011;39910;47.154;27.614;2022-12-20T06:25:16;9.52;;;9.02;;
34737;SDS011;39910;47.154;27.614;2022-12-20T06:27:42;8.98;;;8.57;;
34737;SDS011;39910;47.154;27.614;2022-12-20T06:30:08;9.55;;;9.05;;
34737;SDS011;39910;47.154;27.614;2022-12-20T06:32:34;9.93;;;9.43;;
34737;SDS011;39910;47.154;27.614;2022-12-20T06:35:00;9.52;;;9.02;;
34737;SDS011;39910;47.154;27.614;2022-12-20T06:37:25;9.40;;;8.90;;
34737;SDS011;39910;47.154;27.614;2022-12-20T06:39:51;10.05;;;9.55;;
34737;SDS011;39910;47.154;27.614;2022-12-20T06:42:16;9.82;;;9.32;;
34737;SDS011;39910;47.154;27.614;2022-12-20T06:44:42;10.15;;;9.65;;
34737;SDS011;39910;47.154;27.614;2022-12-20T06:47:07;10.43;;;9.93;;
34737;SDS011;39910;47.154;27.614;2022-12-20T06:49:33;12.00;;;11.35;;
34737;SDS011;39910;47.154;27.614;2022-12-20T06:51:58;11.75;;;11.15;;
34737;SDS011;39910;47.154;27.614;2022-12-20T06:54:24;12.07;;;11.43;;
34737;SDS011;39910;47.154;27.614;2022-12-20T06:56:49;12.10;;;11.50;;
34737;SDS011;39910;47.154;27.614;2022-12-20T06:59:15;12.13;;;11.52;;
34737;SDS011;39910;47.154;27.614;2022-12-20T07:01:41;12.00;;;11.40;;
34737;SDS011;39910;47.154;27.614;2022-12-20T07:04:06;12.60;;;11.90;;
34737;SDS011;39910;47.154;27.614;2022-12-20T07:06:31;13.18;;;12.38;;
34737;SDS011;39910;47.154;27.614;2022-12-20T07:08:57;11.63;;;11.02;;
34737;SDS011;39910;47.154;27.614;2022-12-20T07:11:22;12.20;;;11.52;;
34737;SDS011;39910;47.154;27.614;2022-12-20T07:13:48;11.93;;;11.32;;
34737;SDS011;39910;47.154;27.614;2022-12-20T07:16:14;11.40;;;10.80;;
34737;SDS011;39910;47.154;27.614;2022-12-20T07:18:39;12.50;;;11.80;;
34737;SDS011;39910;47.154;27.614;2022-12-20T07:21:05;11.35;;;10.77;;
34737;SDS011;39910;47.154;27.614;2022-12-20T07:23:31;12.02;;;11.32;;
34737;SDS011;39910;47.154;27.614;2022-12-20T07:25:58;11.57;;;10.98;;
34737;SDS011;39910;47.154;27.614;2022-12-20T07:28:25;11.05;;;10.55;;
34737;SDS011;39910;47.154;27.614;2022-12-20T07:30:51;11.48;;;10.88;;
34737;SDS011;39910;47.154;27.614;2022-12-20T07:33:18;10.60;;;10.10;;
34737;SDS011;39910;47.154;27.614;2022-12-20T07:35:43;12.13;;;11.43;;
34737;SDS011;39910;47.154;27.614;2022-12-20T07:38:11;10.85;;;10.35;;
34737;SDS011;39910;47.154;27.614;2022-12-20T07:40:40;10.70;;;10.20;;
34737;SDS011;39910;47.154;27.614;2022-12-20T07:43:07;10.68;;;10.18;;
34737;SDS011;39910;47.154;27.614;2022-12-20T07:45:35;9.85;;;9.35;;
34737;SDS011;39910;47.154;27.614;2022-12-20T07:48:02;8.30;;;7.90;;
34737;SDS011;39910;47.154;27.614;2022-12-20T07:50:31;10.10;;;9.50;;
34737;SDS011;39910;47.154;27.614;2022-12-20T07:52:58;8.25;;;7.85;;
34737;SDS011;39910;47.154;27.614;2022-12-20T07:55:24;8.68;;;8.27;;
34737;SDS011;39910;47.154;27.614;2022-12-20T07:57:51;9.20;;;8.80;;
34737;SDS011;39910;47.154;27.614;2022-12-20T08:00:21;9.77;;;9.27;;
34737;SDS011;39910;47.154;27.614;2022-12-20T08:02:52;9.82;;;9.32;;
34737;SDS011;39910;47.154;27.614;2022-12-20T08:05:18;9.82;;;9.32;;
34737;SDS011;39910;47.154;27.614;2022-12-20T08:07:45;9.80;;;9.30;;
34737;SDS011;39910;47.154;27.614;2022-12-20T08:10:13;9.63;;;9.13;;
34737;SDS011;39910;47.154;27.614;2022-12-20T08:12:41;9.80;;;9.30;;
34737;SDS011;39910;47.154;27.614;2022-12-20T08:15:09;9.73;;;9.23;;
34737;SDS011;39910;47.154;27.614;2022-12-20T08:17:35;9.80;;;9.30;;
34737;SDS011;39910;47.154;27.614;2022-12-20T08:20:00;10.50;;;10.00;;
34737;SDS011;39910;47.154;27.614;2022-12-20T08:22:26;9.73;;;9.32;;
34737;SDS011;39910;47.154;27.614;2022-12-20T08:24:51;10.50;;;10.00;;
34737;SDS011;39910;47.154;27.614;2022-12-20T08:27:17;11.25;;;10.65;;
34737;SDS011;39910;47.154;27.614;2022-12-20T08:29:42;10.48;;;9.98;;
34737;SDS011;39910;47.154;27.614;2022-12-20T08:32:07;10.55;;;10.05;;
34737;SDS011;39910;47.154;27.614;2022-12-20T08:34:34;10.73;;;10.23;;
34737;SDS011;39910;47.154;27.614;2022-12-20T08:36:59;10.02;;;9.55;;
34737;SDS011;39910;47.154;27.614;2022-12-20T08:39:25;10.35;;;9.85;;
34737;SDS011;39910;47.154;27.614;2022-12-20T08:41:50;9.55;;;9.15;;
34737;SDS011;39910;47.154;27.614;2022-12-20T08:44:16;10.02;;;9.52;;
34737;SDS011;39910;47.154;27.614;2022-12-20T08:46:41;9.38;;;8.98;;
34737;SDS011;39910;47.154;27.614;2022-12-20T08:49:07;10.43;;;9.93;;
34737;SDS011;39910;47.154;27.614;2022-12-20T08:51:32;9.82;;;9.43;;
34737;SDS011;39910;47.154;27.614;2022-12-20T08:53:58;10.52;;;10.02;;
34737;SDS011;39910;47.154;27.614;2022-12-20T08:56:23;10.48;;;9.98;;
34737;SDS011;39910;47.154;27.614;2022-12-20T08:58:49;10.18;;;9.68;;
34737;SDS011;39910;47.154;27.614;2022-12-20T09:01:16;10.32;;;9.82;;
34737;SDS011;39910;47.154;27.614;2022-12-20T09:03:42;11.02;;;10.52;;
34737;SDS011;39910;47.154;27.614;2022-12-20T09:06:10;11.13;;;10.63;;
34737;SDS011;39910;47.154;27.614;2022-12-20T09:08:38;11.00;;;10.50;;
34737;SDS011;39910;47.154;27.614;2022-12-20T09:11:05;10.63;;;10.13;;
34737;SDS011;39910;47.154;27.614;2022-12-20T09:13:32;11.02;;;10.52;;
34737;SDS011;39910;47.154;27.614;2022-12-20T09:16:01;10.80;;;10.30;;
34737;SDS011;39910;47.154;27.614;2022-12-20T09:18:29;10.35;;;9.85;;
34737;SDS011;39910;47.154;27.614;2022-12-20T09:20:54;11.32;;;10.73;;
34737;SDS011;39910;47.154;27.614;2022-12-20T09:23:23;12.43;;;11.73;;
34737;SDS011;39910;47.154;27.614;2022-12-20T09:25:48;10.60;;;10.10;;
34737;SDS011;39910;47.154;27.614;2022-12-20T09:28:14;10.60;;;10.10;;
34737;SDS011;39910;47.154;27.614;2022-12-20T09:30:39;11.45;;;10.85;;
34737;SDS011;39910;47.154;27.614;2022-12-20T09:33:05;10.65;;;10.15;;
34737;SDS011;39910;47.154;27.614;2022-12-20T09:35:31;11.52;;;10.93;;
34737;SDS011;39910;47.154;27.614;2022-12-20T09:37:57;11.27;;;10.68;;
34737;SDS011;39910;47.154;27.614;2022-12-20T09:40:23;11.25;;;10.68;;
34737;SDS011;39910;47.154;27.614;2022-12-20T09:42:53;12.52;;;11.80;;
34737;SDS011;39910;47.154;27.614;2022-12-20T09:45:24;11.85;;;11.18;;
34737;SDS011;39910;47.154;27.614;2022-12-20T09:47:52;10.40;;;9.90;;
34737;SDS011;39910;47.154;27.614;2022-12-20T09:50:18;11.50;;;10.90;;
34737;SDS011;39910;47.154;27.614;2022-12-20T09:52:59;11.63;;;11.02;;
34737;SDS011;39910;47.154;27.614;2022-12-20T09:58:31;11.80;;;11.10;;
34737;SDS011;39910;47.154;27.614;2022-12-20T10:00:58;10.15;;;9.65;;
34737;SDS011;39910;47.154;27.614;2022-12-20T10:03:39;10.73;;;10.18;;
34737;SDS011;39910;47.154;27.614;2022-12-20T10:06:14;11.25;;;10.65;;
34737;SDS011;39910;47.154;27.614;2022-12-20T10:08:56;11.00;;;10.40;;
34737;SDS011;39910;47.154;27.614;2022-12-20T10:17:13;10.02;;;9.52;;
34737;SDS011;39910;47.154;27.614;2022-12-20T10:22:25;10.50;;;10.00;;
34737;SDS011;39910;47.154;27.614;2022-12-20T10:27:42;10.43;;;9.93;;
34737;SDS011;39910;47.154;27.614;2022-12-20T10:30:19;10.70;;;10.10;;
34737;SDS011;39910;47.154;27.614;2022-12-20T10:32:48;11.80;;;11.10;;
34737;SDS011;39910;47.154;27.614;2022-12-20T10:38:06;10.77;;;10.20;;
34737;SDS011;39910;47.154;27.614;2022-12-20T10:40:41;11.18;;;10.57;;
34737;SDS011;39910;47.154;27.614;2022-12-20T10:43:18;11.77;;;11.07;;
34737;SDS011;39910;47.154;27.614;2022-12-20T10:45:56;11.18;;;10.57;;
34737;SDS011;39910;47.154;27.614;2022-12-20T10:48:28;10.93;;;10.35;;
34737;SDS011;39910;47.154;27.614;2022-12-20T10:53:57;12.52;;;11.73;;
34737;SDS011;39910;47.154;27.614;2022-12-20T10:56:30;12.02;;;11.32;;
34737;SDS011;39910;47.154;27.614;2022-12-20T11:01:48;11.30;;;10.65;;
34737;SDS011;39910;47.154;27.614;2022-12-20T11:06:54;10.30;;;9.77;;
34737;SDS011;39910;47.154;27.614;2022-12-20T11:09:22;10.63;;;10.02;;
34737;SDS011;39910;47.154;27.614;2022-12-20T11:12:00;11.32;;;10.73;;
34737;SDS011;39910;47.154;27.614;2022-12-20T11:14:29;11.98;;;11.27;;
34737;SDS011;39910;47.154;27.614;2022-12-20T11:16:56;11.77;;;11.07;;
34737;SDS011;39910;47.154;27.614;2022-12-20T11:24:41;10.65;;;10.10;;
34737;SDS011;39910;47.154;27.614;2022-12-20T11:35:46;10.57;;;10.00;;
34737;SDS011;39910;47.154;27.614;2022-12-20T11:40:50;10.30;;;9.80;;
34737;SDS011;39910;47.154;27.614;2022-12-20T11:49:19;9.82;;;9.32;;
34737;SDS011;39910;47.154;27.614;2022-12-20T11:51:58;11.27;;;10.65;;
34737;SDS011;39910;47.154;27.614;2022-12-20T11:57:10;10.98;;;10.38;;
34737;SDS011;39910;47.154;27.614;2022-12-20T12:04:58;11.27;;;10.65;;
34737;SDS011;39910;47.154;27.614;2022-12-20T12:07:28;10.95;;;10.35;;
34737;SDS011;39910;47.154;27.614;2022-12-20T12:12:43;10.18;;;9.68;;
34737;SDS011;39910;47.154;27.614;2022-12-20T12:22:48;11.23;;;10.63;;
34737;SDS011;39910;47.154;27.614;2022-12-20T12:25:18;11.05;;;10.45;;
34737;SDS011;39910;47.154;27.614;2022-12-20T12:27:44;12.85;;;12.05;;
34737;SDS011;39910;47.154;27.614;2022-12-20T12:30:16;10.68;;;10.07;;
34737;SDS011;39910;47.154;27.614;2022-12-20T12:32:44;10.88;;;10.27;;
34737;SDS011;39910;47.154;27.614;2022-12-20T12:35:35;10.27;;;9.77;;
34737;SDS011;39910;47.154;27.614;2022-12-20T12:46:46;9.90;;;9.40;;
34737;SDS011;39910;47.154;27.614;2022-12-20T12:49:19;10.00;;;9.50;;
34737;SDS011;39910;47.154;27.614;2022-12-20T12:51:52;11.43;;;10.80;;
34737;SDS011;39910;47.154;27.614;2022-12-20T12:54:27;10.27;;;9.77;;
34737;SDS011;39910;47.154;27.614;2022-12-20T12:57:05;9.60;;;9.18;;
34737;SDS011;39910;47.154;27.614;2022-12-20T13:04:28;11.07;;;10.48;;
34737;SDS011;39910;47.154;27.614;2022-12-20T13:06:59;12.38;;;11.57;;
34737;SDS011;39910;47.154;27.614;2022-12-20T13:11:53;10.13;;;9.63;;
34737;SDS011;39910;47.154;27.614;2022-12-20T13:16:45;10.85;;;10.25;;
34737;SDS011;39910;47.154;27.614;2022-12-20T13:19:30;10.75;;;10.18;;
34737;SDS011;39910;47.154;27.614;2022-12-20T13:24:46;10.40;;;9.88;;
34737;SDS011;39910;47.154;27.614;2022-12-20T13:33:15;11.30;;;10.68;;
34737;SDS011;39910;47.154;27.614;2022-12-20T13:37:53;10.00;;;9.50;;
34737;SDS011;39910;47.154;27.614;2022-12-20T13:40:47;11.75;;;11.05;;
34737;SDS011;39910;47.154;27.614;2022-12-20T13:45:48;10.85;;;10.25;;
34737;SDS011;39910;47.154;27.614;2022-12-20T13:48:38;9.60;;;9.18;;
34737;SDS011;39910;47.154;27.614;2022-12-20T13:51:21;9.82;;;9.32;;
34737;SDS011;39910;47.154;27.614;2022-12-20T13:53:50;10.57;;;9.98;;
34737;SDS011;39910;47.154;27.614;2022-12-20T13:58:57;9.98;;;9.48;;
34737;SDS011;39910;47.154;27.614;2022-12-20T14:01:28;9.85;;;9.35;;
34737;SDS011;39910;47.154;27.614;2022-12-20T14:03:55;11.07;;;10.48;;
34737;SDS011;39910;47.154;27.614;2022-12-20T14:06:21;9.68;;;9.18;;
34737;SDS011;39910;47.154;27.614;2022-12-20T14:08:49;11.57;;;10.88;;
34737;SDS011;39910;47.154;27.614;2022-12-20T14:11:17;10.70;;;10.10;;
34737;SDS011;39910;47.154;27.614;2022-12-20T14:16:26;10.35;;;9.85;;
34737;SDS011;39910;47.154;27.614;2022-12-20T14:21:22;10.45;;;9.95;;
34737;SDS011;39910;47.154;27.614;2022-12-20T14:23:50;10.13;;;9.63;;
34737;SDS011;39910;47.154;27.614;2022-12-20T14:26:23;12.05;;;11.35;;
34737;SDS011;39910;47.154;27.614;2022-12-20T14:28:51;10.73;;;10.13;;
34737;SDS011;39910;47.154;27.614;2022-12-20T14:31:23;10.50;;;9.90;;
34737;SDS011;39910;47.154;27.614;2022-12-20T14:36:25;10.60;;;10.05;;
34737;SDS011;39910;47.154;27.614;2022-12-20T14:38:51;12.43;;;11.63;;
34737;SDS011;39910;47.154;27.614;2022-12-20T14:41:38;11.43;;;10.73;;
34737;SDS011;39910;47.154;27.614;2022-12-20T14:46:33;10.70;;;10.10;;
34737;SDS011;39910;47.154;27.614;2022-12-20T14:51:47;10.13;;;9.63;;
34737;SDS011;39910;47.154;27.614;2022-12-20T14:54:17;11.52;;;10.85;;
34737;SDS011;39910;47.154;27.614;2022-12-20T14:56:51;10.40;;;9.90;;
34737;SDS011;39910;47.154;27.614;2022-12-20T14:59:22;11.00;;;10.40;;
34737;SDS011;39910;47.154;27.614;2022-12-20T15:01:52;9.73;;;9.23;;
34737;SDS011;39910;47.154;27.614;2022-12-20T15:04:29;10.43;;;9.85;;
34737;SDS011;39910;47.154;27.614;2022-12-20T15:06:57;11.35;;;10.65;;
34737;SDS011;39910;47.154;27.614;2022-12-20T15:09:24;10.50;;;10.00;;
34737;SDS011;39910;47.154;27.614;2022-12-20T15:11:50;10.77;;;10.18;;
34737;SDS011;39910;47.154;27.614;2022-12-20T15:14:35;11.32;;;10.68;;
34737;SDS011;39910;47.154;27.614;2022-12-20T15:17:05;10.20;;;9.70;;
34737;SDS011;39910;47.154;27.614;2022-12-20T15:19:34;10.70;;;10.10;;
34737;SDS011;39910;47.154;27.614;2022-12-20T15:22:00;10.18;;;9.68;;
34737;SDS011;39910;47.154;27.614;2022-12-20T15:24:27;10.68;;;10.07;;
34737;SDS011;39910;47.154;27.614;2022-12-20T15:26:53;11.00;;;10.40;;
34737;SDS011;39910;47.154;27.614;2022-12-20T15:29:23;10.70;;;10.10;;
34737;SDS011;39910;47.154;27.614;2022-12-20T15:31:50;9.80;;;9.30;;
34737;SDS011;39910;47.154;27.614;2022-12-20T15:34:26;10.85;;;10.25;;
34737;SDS011;39910;47.154;27.614;2022-12-20T15:36:55;10.60;;;10.02;;
34737;SDS011;39910;47.154;27.614;2022-12-20T15:39:24;10.55;;;9.95;;
34737;SDS011;39910;47.154;27.614;2022-12-20T15:41:50;10.77;;;10.18;;
34737;SDS011;39910;47.154;27.614;2022-12-20T15:44:18;10.15;;;9.65;;
34737;SDS011;39910;47.154;27.614;2022-12-20T15:46:45;10.55;;;10.00;;
34737;SDS011;39910;47.154;27.614;2022-12-20T15:49:17;10.63;;;10.05;;
34737;SDS011;39910;47.154;27.614;2022-12-20T15:51:48;9.90;;;9.40;;
34737;SDS011;39910;47.154;27.614;2022-12-20T15:56:46;9.77;;;9.30;;
34737;SDS011;39910;47.154;27.614;2022-12-20T15:59:11;10.38;;;9.85;;
34737;SDS011;39910;47.154;27.614;2022-12-20T16:01:37;10.05;;;9.55;;
34737;SDS011;39910;47.154;27.614;2022-12-20T16:04:05;10.05;;;9.55;;
34737;SDS011;39910;47.154;27.614;2022-12-20T16:06:31;9.68;;;9.18;;
34737;SDS011;39910;47.154;27.614;2022-12-20T16:08:58;10.43;;;9.82;;
34737;SDS011;39910;47.154;27.614;2022-12-20T16:11:27;11.57;;;10.88;;
34737;SDS011;39910;47.154;27.614;2022-12-20T16:13:54;10.25;;;9.75;;
34737;SDS011;39910;47.154;27.614;2022-12-20T16:16:28;9.82;;;9.32;;
34737;SDS011;39910;47.154;27.614;2022-12-20T16:18:56;10.82;;;10.23;;
34737;SDS011;39910;47.154;27.614;2022-12-20T16:21:23;10.27;;;9.77;;
34737;SDS011;39910;47.154;27.614;2022-12-20T16:23:54;10.63;;;10.02;;
34737;SDS011;39910;47.154;27.614;2022-12-20T16:26:21;10.02;;;9.52;;
34737;SDS011;39910;47.154;27.614;2022-12-20T16:28:48;10.93;;;10.32;;
34737;SDS011;39910;47.154;27.614;2022-12-20T16:31:34;9.80;;;9.30;;
34737;SDS011;39910;47.154;27.614;2022-12-20T16:34:03;11.20;;;10.60;;